Terminal Aerodrome Forecast
Issued by NWS Lake Charles, LA

Home | Current Version | Previous Version | Text Only | Print | Product List | Glossary On
Versions: 1 2 3 4 5 6 7 8 9 10 11 12 13 14
000
FTUS44 KLCH 262054 AAB
TAFLCH
TAF AMD
KLCH 262054Z 2621/2718 18015G25KT P6SM VCTS BKN020CB OVC030
     FM270300 33013KT P6SM FEW250=

USA.gov is the U.S. government's official web portal to all federal, state and local government web resources and services.